Time;durP1;ratioP1;P1;durP2;ratioP2;P2;SDS_P1;SDS_P2;PMS_P1;PMS_P2;Temp;Humidity;BMP_temperature;BMP_pressure;BME280_temperature;BME280_humidity;BME280_pressure;Samples;Min_cycle;Max_cycle;Signal;HPM_P1;HPM_P2
2024/03/14 00:00:35;;;;;;;38.75;18.25;;;4.60;99.90;;;;;;5024697;28;20125;-66
2024/03/14 00:03:01;;;;;;;36.63;17.80;;;4.60;99.90;;;;;;5028902;28;20038;-67
2024/03/14 00:05:27;;;;;;;36.58;18.38;;;4.50;99.90;;;;;;5032768;28;20024;-67
2024/03/14 00:07:56;;;;;;;35.90;17.08;;;4.60;99.90;;;;;;5023203;28;20038;-67
2024/03/14 00:10:24;;;;;;;37.58;18.30;;;4.40;99.90;;;;;;5030838;28;20337;-66
2024/03/14 00:12:51;;;;;;;41.58;20.10;;;4.70;99.90;;;;;;5024296;28;20036;-65
2024/03/14 00:15:17;;;;;;;36.53;17.73;;;4.40;99.90;;;;;;5031427;28;20095;-66
2024/03/14 00:17:44;;;;;;;38.65;18.55;;;4.40;99.90;;;;;;5026449;28;20100;-67
2024/03/14 00:20:12;;;;;;;37.40;18.80;;;4.40;99.90;;;;;;5030649;28;20083;-65
2024/03/14 00:22:38;;;;;;;42.58;20.48;;;4.30;99.90;;;;;;5028725;28;20034;-66
2024/03/14 00:25:09;;;;;;;38.67;18.40;;;4.20;99.90;;;;;;5041199;28;20045;-66
2024/03/14 00:27:37;;;;;;;40.83;19.42;;;4.20;99.90;;;;;;5026399;28;20033;-66
2024/03/14 00:30:04;;;;;;;41.55;19.67;;;4.30;99.90;;;;;;5025231;28;20045;-67
2024/03/14 00:32:30;;;;;;;44.10;20.77;;;4.10;99.90;;;;;;5025409;28;20069;-66
2024/03/14 00:34:55;;;;;;;41.45;19.67;;;4.10;99.90;;;;;;5028142;28;20362;-66
2024/03/14 00:37:21;;;;;;;39.70;19.48;;;4.10;99.90;;;;;;5034075;28;20041;-64
2024/03/14 00:39:46;;;;;;;39.58;19.60;;;4.10;99.90;;;;;;5023051;28;20041;-66
2024/03/14 00:42:14;;;;;;;38.35;18.67;;;4.00;99.90;;;;;;5025375;28;20042;-65
2024/03/14 00:44:40;;;;;;;40.33;19.58;;;4.00;99.90;;;;;;5025014;28;20052;-66
2024/03/14 00:47:06;;;;;;;40.90;19.40;;;4.00;99.90;;;;;;5024918;28;20335;-65
2024/03/14 00:49:31;;;;;;;43.53;20.55;;;3.80;99.90;;;;;;5022991;28;20265;-65
2024/03/14 00:51:57;;;;;;;46.53;20.38;;;;;;;;;;5025395;28;20041;-66
2024/03/14 00:54:23;;;;;;;40.08;20.20;;;4.00;99.90;;;;;;5027694;28;20053;-66
2024/03/14 00:56:49;;;;;;;41.92;21.23;;;4.00;99.90;;;;;;5015206;28;20033;-65
2024/03/14 00:59:14;;;;;;;41.63;20.42;;;3.90;99.90;;;;;;5029308;28;20026;-66
2024/03/14 01:01:46;;;;;;;38.08;19.42;;;4.00;99.90;;;;;;5028756;28;20075;-65
2024/03/14 01:04:13;;;;;;;40.25;19.20;;;;;;;;;;5029682;28;20329;-67
2024/03/14 01:06:39;;;;;;;51.38;21.92;;;4.00;99.90;;;;;;5032342;28;20049;-66
2024/03/14 01:09:06;;;;;;;44.92;21.85;;;4.00;99.90;;;;;;5026531;28;20026;-65
2024/03/14 01:11:33;;;;;;;41.35;19.75;;;3.90;99.90;;;;;;5026525;28;20037;-65
2024/03/14 01:13:59;;;;;;;41.20;20.00;;;3.90;99.90;;;;;;5026512;28;20303;-65
2024/03/14 01:16:25;;;;;;;38.90;19.88;;;3.90;99.90;;;;;;5027883;28;20033;-66
2024/03/14 01:18:51;;;;;;;46.63;21.75;;;3.90;99.90;;;;;;5032145;28;20358;-64
2024/03/14 01:21:17;;;;;;;43.40;21.40;;;3.80;99.90;;;;;;5023762;28;20069;-65
2024/03/14 01:23:42;;;;;;;45.47;21.00;;;3.80;99.90;;;;;;5021666;28;20034;-66
2024/03/14 01:26:09;;;;;;;38.88;19.95;;;3.80;99.90;;;;;;5020148;28;20387;-66
2024/03/14 01:28:35;;;;;;;39.65;19.63;;;3.70;99.90;;;;;;5024920;28;20034;-67
2024/03/14 01:31:01;;;;;;;46.90;21.10;;;3.70;99.90;;;;;;5028668;28;20072;-66
2024/03/14 01:33:26;;;;;;;48.10;21.92;;;3.80;99.90;;;;;;5027700;28;20214;-67
2024/03/14 01:35:58;;;;;;;46.47;20.95;;;3.60;99.90;;;;;;5023435;28;20041;-67
2024/03/14 01:38:24;;;;;;;44.55;22.27;;;3.60;99.90;;;;;;5023096;28;20041;-66
2024/03/14 01:40:50;;;;;;;45.65;21.05;;;3.70;99.90;;;;;;5008014;28;20060;-66
2024/03/14 01:43:16;;;;;;;47.30;22.42;;;3.90;99.90;;;;;;5019641;28;20042;-65
2024/03/14 01:45:47;;;;;;;48.78;21.48;;;3.60;99.90;;;;;;5024361;28;20352;-64
2024/03/14 01:48:14;;;;;;;46.47;21.95;;;3.50;99.90;;;;;;5019440;28;20080;-64
2024/03/14 01:50:40;;;;;;;41.72;19.60;;;;;;;;;;5029027;28;20041;-65
2024/03/14 01:53:06;;;;;;;40.28;20.35;;;3.60;99.90;;;;;;5019320;28;20034;-66
2024/03/14 01:55:32;;;;;;;46.70;21.10;;;3.50;99.90;;;;;;5027613;28;20111;-65
2024/03/14 01:57:58;;;;;;;43.80;20.42;;;3.50;99.90;;;;;;5019482;28;20092;-65
2024/03/14 02:00:33;;;;;;;44.05;20.75;;;3.30;99.90;;;;;;5019486;28;20065;-65
2024/03/14 02:03:00;;;;;;;41.97;19.50;;;3.40;99.90;;;;;;5028214;28;20048;-64
2024/03/14 02:05:44;;;;;;;50.47;21.40;;;3.40;99.90;;;;;;5022433;28;20208;-66
2024/03/14 02:08:10;;;;;;;41.63;21.20;;;3.40;99.90;;;;;;5026205;28;20034;-64
2024/03/14 02:10:36;;;;;;;46.55;20.27;;;3.40;99.90;;;;;;5023127;28;20029;-65
2024/03/14 02:13:02;;;;;;;42.20;20.90;;;3.30;99.90;;;;;;5027831;28;20121;-65
2024/03/14 02:15:29;;;;;;;46.58;20.58;;;3.30;99.90;;;;;;5022535;28;20040;-66
2024/03/14 02:17:56;;;;;;;42.55;20.83;;;3.30;99.90;;;;;;5027030;28;20029;-65
2024/03/14 02:20:22;;;;;;;41.42;20.83;;;3.20;99.90;;;;;;5031467;28;20040;-64
2024/03/14 02:22:49;;;;;;;44.20;22.08;;;3.20;99.90;;;;;;5035142;28;20037;-64
2024/03/14 02:25:14;;;;;;;44.03;21.30;;;3.20;99.90;;;;;;5026506;28;20432;-64
2024/03/14 02:27:40;;;;;;;45.95;21.95;;;3.20;99.90;;;;;;5023114;28;20321;-67
2024/03/14 02:30:07;;;;;;;48.95;22.20;;;3.10;99.90;;;;;;5022068;28;20306;-67
2024/03/14 02:32:33;;;;;;;53.50;22.77;;;3.10;99.90;;;;;;5023196;28;20057;-67
2024/03/14 02:35:02;;;;;;;45.15;21.73;;;3.10;99.90;;;;;;5025411;28;20048;-65
2024/03/14 02:37:30;;;;;;;45.97;21.67;;;3.10;99.90;;;;;;5028783;28;20129;-66
2024/03/14 02:39:56;;;;;;;48.28;22.70;;;3.00;99.90;;;;;;5025153;28;20100;-66
2024/03/14 02:42:22;;;;;;;46.88;21.98;;;3.00;99.90;;;;;;5025849;28;20029;-66
2024/03/14 02:44:47;;;;;;;54.63;24.30;;;3.00;99.90;;;;;;5025817;28;20036;-65
2024/03/14 02:47:13;;;;;;;40.00;20.35;;;3.00;99.90;;;;;;5025675;28;20048;-66
2024/03/14 02:49:39;;;;;;;53.03;22.65;;;3.00;99.90;;;;;;5025265;28;20301;-66
2024/03/14 02:52:06;;;;;;;50.28;23.58;;;3.00;99.90;;;;;;5027800;28;20044;-66
2024/03/14 02:54:31;;;;;;;43.58;20.75;;;2.90;99.90;;;;;;5035753;28;20040;-65
2024/03/14 02:56:57;;;;;;;44.28;20.42;;;2.90;99.90;;;;;;5024694;28;20049;-69
2024/03/14 02:59:23;;;;;;;48.53;22.70;;;2.90;99.90;;;;;;5025045;28;20053;-65
2024/03/14 03:01:49;;;;;;;40.17;20.73;;;2.80;99.90;;;;;;5024732;28;20034;-69
2024/03/14 03:04:15;;;;;;;46.42;21.63;;;2.90;99.90;;;;;;5025019;28;20068;-66
2024/03/14 03:06:55;;;;;;;44.63;21.92;;;2.90;99.90;;;;;;5029935;28;20049;-66
2024/03/14 03:09:26;;;;;;;42.70;20.48;;;;;;;;;;5027696;28;20053;-67
2024/03/14 03:11:57;;;;;;;44.80;20.55;;;2.80;99.90;;;;;;5028093;28;20037;-68
2024/03/14 03:14:23;;;;;;;44.45;22.00;;;2.70;99.90;;;;;;5027201;28;20034;-70
2024/03/14 03:16:49;;;;;;;50.88;23.65;;;3.00;99.90;;;;;;5023152;28;20030;-67
2024/03/14 03:19:15;;;;;;;53.05;23.13;;;2.70;99.90;;;;;;5037934;28;20058;-65
2024/03/14 03:21:41;;;;;;;51.13;22.33;;;2.80;99.90;;;;;;5024451;28;20045;-68
2024/03/14 03:24:09;;;;;;;49.15;22.77;;;2.80;99.90;;;;;;5029488;28;20064;-68
2024/03/14 03:26:35;;;;;;;48.17;20.77;;;2.80;99.90;;;;;;5039282;28;20025;-66
2024/03/14 03:29:03;;;;;;;44.85;21.52;;;2.80;99.90;;;;;;5021382;28;20114;-67
2024/03/14 03:31:29;;;;;;;45.90;21.40;;;2.70;99.90;;;;;;5031829;28;20042;-67
2024/03/14 03:33:56;;;;;;;46.90;21.90;;;;;;;;;;5022791;28;20435;-67
2024/03/14 03:36:22;;;;;;;50.85;22.50;;;2.80;99.90;;;;;;5022384;28;20371;-68
2024/03/14 03:38:49;;;;;;;54.20;22.63;;;2.90;99.90;;;;;;5022775;28;20105;-68
2024/03/14 03:41:14;;;;;;;49.17;22.55;;;2.80;99.90;;;;;;5026675;28;20042;-68
2024/03/14 03:43:40;;;;;;;49.70;22.35;;;2.80;99.90;;;;;;5028611;28;20087;-67
2024/03/14 03:46:07;;;;;;;47.38;22.08;;;2.80;99.90;;;;;;5025354;28;20041;-69
2024/03/14 03:48:38;;;;;;;46.65;20.77;;;2.80;99.90;;;;;;5021789;28;20064;-67
2024/03/14 03:51:07;;;;;;;44.38;19.98;;;2.70;99.90;;;;;;5021893;28;20274;-67
2024/03/14 03:53:33;;;;;;;45.97;20.27;;;2.70;99.90;;;;;;5021909;28;20044;-67
2024/03/14 03:56:02;;;;;;;50.28;22.02;;;2.70;99.90;;;;;;5022059;28;20034;-66
2024/03/14 03:58:34;;;;;;;53.53;23.48;;;2.60;99.90;;;;;;5020194;28;20438;-67
2024/03/14 04:01:07;;;;;;;44.50;19.40;;;2.60;99.90;;;;;;5031451;28;20034;-66
2024/03/14 04:03:35;;;;;;;44.50;22.73;;;2.50;99.90;;;;;;5021433;28;20034;-67
2024/03/14 04:06:02;;;;;;;47.30;22.55;;;2.60;99.90;;;;;;5021609;28;20033;-66
2024/03/14 04:08:30;;;;;;;48.05;21.70;;;2.60;99.90;;;;;;5021393;28;20038;-66
2024/03/14 04:10:56;;;;;;;48.10;21.17;;;2.90;99.90;;;;;;5029776;28;20046;-67
2024/03/14 04:13:22;;;;;;;48.40;21.35;;;2.80;99.90;;;;;;5030058;28;20038;-68
2024/03/14 04:15:49;;;;;;;52.20;21.60;;;2.40;99.90;;;;;;5022692;28;20373;-67
2024/03/14 04:18:14;;;;;;;45.72;20.25;;;2.40;99.90;;;;;;5027623;28;20061;-66
2024/03/14 04:20:40;;;;;;;47.20;22.33;;;2.30;99.90;;;;;;5025790;28;20045;-66
2024/03/14 04:23:06;;;;;;;50.38;21.42;;;2.30;99.90;;;;;;5022741;28;20025;-66
2024/03/14 04:25:32;;;;;;;44.20;20.90;;;2.80;99.90;;;;;;5024749;28;20041;-67
2024/03/14 04:27:58;;;;;;;47.67;22.33;;;2.40;99.90;;;;;;5043256;28;20088;-67
2024/03/14 04:30:24;;;;;;;61.22;23.05;;;;;;;;;;5026339;28;20097;-68
2024/03/14 04:32:50;;;;;;;49.80;21.65;;;2.30;99.90;;;;;;5021910;28;20038;-68
2024/03/14 04:35:17;;;;;;;53.33;22.95;;;2.20;99.90;;;;;;5028542;28;20040;-68
2024/03/14 04:37:44;;;;;;;49.70;22.73;;;2.30;99.90;;;;;;5023050;28;20050;-66
2024/03/14 04:40:12;;;;;;;47.38;21.65;;;2.20;99.90;;;;;;5023439;28;20033;-69
2024/03/14 04:42:41;;;;;;;56.78;22.23;;;2.20;99.90;;;;;;5023231;28;20029;-66
2024/03/14 04:45:09;;;;;;;;;;;2.20;99.90;;;;;;5023944;28;20348;-66
2024/03/14 04:47:36;;;;;;;51.55;24.17;;;2.20;99.90;;;;;;5017505;28;19909;-70
2024/03/14 04:50:09;;;;;;;48.40;20.58;;;2.20;99.90;;;;;;5023215;28;20053;-68
2024/03/14 04:52:36;;;;;;;49.58;22.70;;;2.20;99.90;;;;;;5028628;28;20025;-67
2024/03/14 04:55:08;;;;;;;52.08;21.92;;;2.10;99.90;;;;;;5020651;28;20033;-68
2024/03/14 04:57:34;;;;;;;48.95;21.75;;;2.10;99.90;;;;;;5025930;28;20581;-68
2024/03/14 05:00:00;;;;;;;48.33;22.23;;;2.20;99.90;;;;;;5022985;28;20033;-67
2024/03/14 05:02:27;;;;;;;47.28;21.38;;;2.20;99.90;;;;;;5035656;28;20032;-68
2024/03/14 05:04:52;;;;;;;50.38;21.05;;;2.20;99.90;;;;;;5029557;28;20064;-64
2024/03/14 05:07:18;;;;;;;52.85;21.92;;;2.30;99.90;;;;;;5022707;28;20041;-65
2024/03/14 05:09:44;;;;;;;51.33;21.75;;;2.20;99.90;;;;;;5030331;28;20101;-66
2024/03/14 05:12:10;;;;;;;51.72;22.13;;;2.20;99.90;;;;;;5014191;28;20042;-65
2024/03/14 05:14:38;;;;;;;48.95;23.10;;;2.10;99.90;;;;;;5021474;28;20033;-65
2024/03/14 05:17:04;;;;;;;49.88;21.13;;;2.20;99.90;;;;;;5019881;28;20091;-66
2024/03/14 05:19:30;;;;;;;50.33;22.50;;;2.20;99.90;;;;;;5020497;28;20097;-66
2024/03/14 05:21:56;;;;;;;39.38;19.98;;;2.20;99.90;;;;;;5016850;28;20036;-66
2024/03/14 05:24:22;;;;;;;49.15;22.42;;;2.20;99.90;;;;;;5040619;28;20234;-66
2024/03/14 05:26:47;;;;;;;49.17;21.30;;;2.00;99.90;;;;;;5024575;28;20222;-66
2024/03/14 05:29:13;;;;;;;52.90;21.77;;;2.30;99.90;;;;;;5024466;28;20045;-66
2024/03/14 05:31:38;;;;;;;50.63;22.45;;;2.50;99.90;;;;;;5020577;28;20398;-66
2024/03/14 05:34:04;;;;;;;52.97;22.45;;;2.40;99.90;;;;;;5022420;28;20042;-66
2024/03/14 05:36:30;;;;;;;56.67;23.60;;;2.40;99.90;;;;;;5018543;28;20052;-65
2024/03/14 05:38:58;;;;;;;58.60;23.25;;;2.60;99.90;;;;;;5020135;28;20057;-66
2024/03/14 05:41:23;;;;;;;52.63;20.42;;;2.60;99.90;;;;;;5019147;28;20305;-69
2024/03/14 05:43:49;;;;;;;46.90;20.40;;;2.60;99.90;;;;;;5024158;28;20044;-68
2024/03/14 05:46:15;;;;;;;50.10;22.38;;;2.70;99.90;;;;;;5019019;28;20069;-67
2024/03/14 05:48:40;;;;;;;51.03;22.23;;;3.00;99.90;;;;;;5024903;28;20048;-68
2024/03/14 05:51:09;;;;;;;48.28;20.30;;;3.00;99.90;;;;;;5030650;28;20226;-68
2024/03/14 05:53:35;;;;;;;50.72;23.05;;;3.00;99.90;;;;;;5022438;28;20034;-68
2024/03/14 05:56:02;;;;;;;45.53;21.73;;;3.00;99.90;;;;;;5022038;28;20573;-68
2024/03/14 05:58:30;;;;;;;45.03;21.98;;;3.10;99.90;;;;;;5023087;28;20045;-67
2024/03/14 06:00:56;;;;;;;49.97;22.35;;;3.10;99.90;;;;;;5024868;28;20080;-69
2024/03/14 06:03:22;;;;;;;47.67;21.30;;;;;;;;;;5031243;28;20317;-68
2024/03/14 06:05:52;;;;;;;53.00;21.92;;;3.10;99.90;;;;;;5025700;28;20045;-67
2024/03/14 06:08:19;;;;;;;51.05;20.05;;;3.40;99.90;;;;;;5028896;28;20046;-67
2024/03/14 06:10:45;;;;;;;41.65;19.98;;;3.30;99.90;;;;;;5023031;28;20052;-67
2024/03/14 06:13:10;;;;;;;45.83;21.15;;;3.40;99.90;;;;;;5022654;28;20021;-67
2024/03/14 06:15:36;;;;;;;45.50;19.70;;;3.50;99.90;;;;;;5022626;28;20099;-68
2024/03/14 06:18:05;;;;;;;45.60;20.30;;;3.70;99.90;;;;;;5027775;28;20341;-68
2024/03/14 06:20:31;;;;;;;44.55;20.67;;;;;;;;;;5021024;28;20034;-65
2024/03/14 06:22:58;;;;;;;38.45;18.23;;;4.00;99.90;;;;;;5021759;28;20065;-67
2024/03/14 06:25:24;;;;;;;41.40;20.58;;;4.10;99.90;;;;;;5021106;28;20038;-64
2024/03/14 06:27:52;;;;;;;41.60;18.88;;;4.20;99.90;;;;;;5021080;28;20048;-65
2024/03/14 06:30:18;;;;;;;40.88;19.10;;;4.40;99.90;;;;;;5024816;28;20050;-66
2024/03/14 06:32:47;;;;;;;42.17;19.77;;;4.70;99.90;;;;;;5022138;28;20091;-66
2024/03/14 06:35:13;;;;;;;40.28;19.67;;;4.70;99.90;;;;;;5026214;28;20033;-67
2024/03/14 06:37:39;;;;;;;40.38;19.10;;;4.80;99.90;;;;;;5020704;28;20058;-66
2024/03/14 06:40:05;;;;;;;39.58;18.65;;;5.00;99.90;;;;;;5028303;28;20047;-65
2024/03/14 06:42:32;;;;;;;43.45;19.13;;;5.10;99.90;;;;;;5024563;28;20065;-66
2024/03/14 06:45:02;;;;;;;37.53;18.58;;;5.20;99.90;;;;;;5026521;28;20056;-66
2024/03/14 06:47:29;;;;;;;41.08;18.63;;;5.30;99.90;;;;;;5024847;28;20298;-66
2024/03/14 06:50:00;;;;;;;37.75;18.33;;;5.40;99.90;;;;;;5023423;28;20076;-66
2024/03/14 06:52:26;;;;;;;36.25;18.15;;;5.50;99.90;;;;;;5041930;28;20241;-67
2024/03/14 06:54:53;;;;;;;40.83;19.55;;;5.50;99.90;;;;;;5022115;28;20361;-65
2024/03/14 06:57:21;;;;;;;36.88;18.77;;;5.60;99.90;;;;;;5022454;28;20037;-66
2024/03/14 06:59:52;;;;;;;39.67;17.58;;;5.70;99.90;;;;;;5021755;28;20038;-67
2024/03/14 07:02:18;;;;;;;42.00;18.80;;;5.80;99.90;;;;;;5022079;28;20087;-67
2024/03/14 07:04:44;;;;;;;39.28;19.15;;;5.80;99.90;;;;;;5021625;28;20040;-65
2024/03/14 07:07:11;;;;;;;36.65;18.45;;;5.90;99.90;;;;;;5025350;28;20041;-67
2024/03/14 07:09:37;;;;;;;35.53;18.75;;;5.90;99.90;;;;;;5031817;28;20061;-65
2024/03/14 07:12:05;;;;;;;39.92;19.42;;;6.00;99.90;;;;;;5021242;28;20289;-65
2024/03/14 07:14:31;;;;;;;39.33;19.25;;;6.00;99.90;;;;;;5021627;28;20227;-66
2024/03/14 07:16:57;;;;;;;39.53;19.25;;;6.20;99.90;;;;;;5021734;28;20061;-68
2024/03/14 07:19:23;;;;;;;33.03;17.33;;;6.00;99.90;;;;;;5021575;28;20052;-67
2024/03/14 07:21:59;;;;;;;37.47;17.73;;;6.20;99.90;;;;;;5035699;28;20113;-68
2024/03/14 07:24:26;;;;;;;38.40;19.08;;;;;;;;;;5027006;28;20041;-69
2024/03/14 07:26:53;;;;;;;33.03;17.88;;;6.30;99.90;;;;;;5033442;28;20061;-68
2024/03/14 07:29:18;;;;;;;35.33;19.00;;;6.50;99.90;;;;;;5025564;28;20044;-68
2024/03/14 07:31:51;;;;;;;38.67;18.17;;;6.60;99.90;;;;;;5037841;28;20037;-70
2024/03/14 07:34:19;;;;;;;45.50;21.30;;;;;;;;;;5021324;28;20042;-66
2024/03/14 07:36:45;;;;;;;40.60;18.73;;;7.00;99.90;;;;;;5021212;28;20030;-66
2024/03/14 07:39:14;;;;;;;35.58;17.17;;;7.10;99.90;;;;;;5020158;28;20054;-67
2024/03/14 07:41:41;;;;;;;33.20;17.27;;;7.20;99.90;;;;;;5037335;28;20333;-65
2024/03/14 07:44:07;;;;;;;35.22;18.50;;;7.10;99.90;;;;;;5035238;28;20411;-65
2024/03/14 07:46:33;;;;;;;38.38;18.02;;;7.10;99.90;;;;;;5032579;28;20318;-65
2024/03/14 07:48:59;;;;;;;31.63;17.63;;;7.30;99.90;;;;;;5032634;28;20033;-65
2024/03/14 07:51:26;;;;;;;34.45;16.42;;;;;;;;;;5032038;28;20109;-65
2024/03/14 07:53:53;;;;;;;35.88;17.92;;;7.20;97.30;;;;;;5021016;28;20072;-65
2024/03/14 07:56:21;;;;;;;36.13;19.08;;;7.40;99.90;;;;;;5021004;28;20042;-65
2024/03/14 07:58:46;;;;;;;37.60;18.35;;;7.30;97.20;;;;;;5026138;28;20104;-66
2024/03/14 08:01:18;;;;;;;42.47;20.02;;;7.40;97.00;;;;;;5020746;28;20044;-65
2024/03/14 08:03:47;;;;;;;38.63;19.70;;;7.50;99.90;;;;;;5019467;28;20045;-65
2024/03/14 08:06:18;;;;;;;38.60;18.83;;;7.60;99.90;;;;;;5020934;28;20330;-65
2024/03/14 08:08:45;;;;;;;40.45;19.75;;;7.70;99.90;;;;;;5020627;28;20143;-65
2024/03/14 08:11:13;;;;;;;38.08;20.10;;;7.60;96.80;;;;;;5020732;28;20077;-66
2024/03/14 08:13:39;;;;;;;30.02;14.52;;;7.70;96.50;;;;;;5028778;28;20084;-66
2024/03/14 08:16:22;;;;;;;33.08;16.27;;;7.80;96.30;;;;;;5025843;28;20088;-64
2024/03/14 08:18:51;;;;;;;29.88;16.52;;;8.40;99.90;;;;;;5028865;28;20655;-65
2024/03/14 08:21:17;;;;;;;;;;;8.30;92.60;;;;;;5021113;28;20254;-65
2024/03/14 08:23:45;;;;;;;27.50;15.75;;;8.20;92.30;;;;;;5034121;28;20229;-66
2024/03/14 08:26:12;;;;;;;34.13;16.98;;;8.40;92.50;;;;;;5044010;28;20048;-66
2024/03/14 08:28:41;;;;;;;35.05;17.83;;;8.50;91.40;;;;;;5022952;28;20041;-66
2024/03/14 08:31:15;;;;;;;33.00;15.02;;;8.60;91.30;;;;;;5020257;28;20038;-65
2024/03/14 08:33:45;;;;;;;28.83;14.43;;;8.70;89.70;;;;;;5036556;28;20096;-66
2024/03/14 08:36:11;;;;;;;31.20;15.48;;;8.80;86.00;;;;;;5028570;28;20037;-66
2024/03/14 08:38:37;;;;;;;34.25;15.18;;;9.00;85.30;;;;;;5019943;28;20054;-66
2024/03/14 08:41:03;;;;;;;26.50;15.02;;;9.10;83.80;;;;;;5020098;28;20080;-66
2024/03/14 08:43:30;;;;;;;31.63;15.38;;;9.40;82.60;;;;;;5035663;28;20074;-66
2024/03/14 08:45:56;;;;;;;26.08;14.68;;;9.60;80.80;;;;;;5025044;28;20376;-66
2024/03/14 08:48:22;;;;;;;24.27;13.93;;;9.70;78.80;;;;;;5026548;28;20345;-66
2024/03/14 08:50:49;;;;;;;26.45;14.30;;;9.90;76.60;;;;;;5024855;28;20049;-66
2024/03/14 08:53:15;;;;;;;29.30;15.02;;;10.10;75.60;;;;;;5019620;28;20026;-68
2024/03/14 08:55:54;;;;;;;29.75;13.80;;;10.30;73.60;;;;;;5019571;28;20068;-65
2024/03/14 08:58:21;;;;;;;25.20;13.57;;;10.40;72.90;;;;;;5018990;28;20041;-65
2024/03/14 09:00:47;;;;;;;27.48;14.70;;;10.60;71.30;;;;;;5019417;28;20041;-66
2024/03/14 09:03:15;;;;;;;27.83;15.25;;;10.80;71.00;;;;;;5019711;28;20065;-66
2024/03/14 09:05:42;;;;;;;24.63;13.32;;;10.90;70.40;;;;;;5027618;28;20068;-67
2024/03/14 09:08:08;;;;;;;24.92;14.35;;;11.10;69.40;;;;;;5033127;28;20045;-66
2024/03/14 09:10:35;;;;;;;25.75;14.48;;;11.20;68.70;;;;;;5019215;28;20026;-66
2024/03/14 09:13:00;;;;;;;26.42;13.77;;;11.30;66.90;;;;;;5026332;28;20045;-66
2024/03/14 09:15:27;;;;;;;22.55;11.98;;;11.40;66.60;;;;;;5024405;28;20108;-68
2024/03/14 09:17:53;;;;;;;25.60;13.75;;;11.50;64.80;;;;;;5024770;28;20044;-66
2024/03/14 09:20:21;;;;;;;23.42;13.50;;;11.60;65.10;;;;;;5022554;28;20037;-66
2024/03/14 09:22:55;;;;;;;25.13;14.30;;;12.30;64.10;;;;;;5019266;28;20068;-66
2024/03/14 09:25:23;;;;;;;22.85;13.70;;;11.90;63.50;;;;;;5019190;28;20093;-66
2024/03/14 09:27:49;;;;;;;26.15;12.82;;;11.80;84.20;;;;;;5027676;28;20349;-66
2024/03/14 09:30:17;;;;;;;25.08;12.55;;;12.00;61.70;;;;;;5021043;28;20037;-67
2024/03/14 09:32:43;;;;;;;23.13;12.27;;;12.10;61.70;;;;;;5026890;28;20037;-67
2024/03/14 09:35:13;;;;;;;22.55;12.95;;;12.10;59.60;;;;;;5019127;28;20042;-66
2024/03/14 09:37:39;;;;;;;21.77;12.00;;;12.20;60.90;;;;;;5020629;28;20045;-66
2024/03/14 09:40:13;;;;;;;19.17;12.32;;;12.20;60.20;;;;;;5026921;28;20040;-66
2024/03/14 09:42:39;;;;;;;23.33;11.85;;;12.30;76.40;;;;;;5018962;28;20101;-66
2024/03/14 09:45:12;;;;;;;15.55;9.90;;;12.70;76.60;;;;;;5019104;28;20372;-67
2024/03/14 09:47:38;;;;;;;18.73;12.13;;;12.40;59.10;;;;;;5028067;28;20043;-66
2024/03/14 09:50:18;;;;;;;21.52;11.85;;;12.50;57.70;;;;;;5020809;28;20097;-67
2024/03/14 09:52:45;;;;;;;17.88;11.45;;;12.60;58.10;;;;;;5018861;28;20347;-66
2024/03/14 09:55:14;;;;;;;18.50;10.30;;;12.70;57.50;;;;;;5027285;28;20333;-65
2024/03/14 09:57:40;;;;;;;16.95;10.52;;;12.70;57.20;;;;;;5024225;28;20052;-70
2024/03/14 10:00:15;;;;;;;17.65;10.73;;;12.90;56.70;;;;;;5026885;28;20029;-66
2024/03/14 10:02:41;;;;;;;19.67;10.98;;;13.00;55.40;;;;;;5029688;28;20045;-66
2024/03/14 10:05:14;;;;;;;15.35;9.98;;;13.10;55.20;;;;;;5018843;28;20037;-66
2024/03/14 10:07:42;;;;;;;16.70;10.20;;;13.10;55.20;;;;;;5018808;28;20361;-66
2024/03/14 10:10:08;;;;;;;12.18;7.95;;;13.10;55.30;;;;;;5021882;28;20069;-67
2024/03/14 10:12:36;;;;;;;12.50;8.52;;;13.20;54.40;;;;;;5034741;28;20032;-68
2024/03/14 10:15:06;;;;;;;13.07;8.18;;;13.30;53.50;;;;;;5026050;28;20047;-65
2024/03/14 10:17:32;;;;;;;10.48;7.93;;;13.30;51.40;;;;;;5023406;28;20101;-66
2024/03/14 10:20:08;;;;;;;12.60;7.85;;;13.30;51.60;;;;;;5018390;28;20389;-69
2024/03/14 10:22:35;;;;;;;13.98;8.75;;;13.40;49.60;;;;;;5019352;28;20120;-66
2024/03/14 10:25:04;;;;;;;12.02;7.75;;;13.50;50.70;;;;;;5027198;28;20242;-68
2024/03/14 10:27:29;;;;;;;12.40;8.20;;;13.50;50.40;;;;;;5018858;28;20041;-69
2024/03/14 10:29:56;;;;;;;12.30;7.88;;;13.50;49.80;;;;;;5030878;28;20120;-67
2024/03/14 10:32:24;;;;;;;14.20;9.73;;;13.60;50.10;;;;;;5022490;28;20412;-65
2024/03/14 10:34:54;;;;;;;14.43;8.18;;;13.60;50.30;;;;;;5018283;28;20029;-64
2024/03/14 10:37:30;;;;;;;13.43;8.35;;;13.60;49.10;;;;;;5020608;28;20032;-66
2024/03/14 10:40:01;;;;;;;13.43;8.45;;;13.70;49.10;;;;;;5018522;28;20034;-72
2024/03/14 10:42:28;;;;;;;12.00;8.07;;;13.70;49.10;;;;;;5034688;28;20225;-66
2024/03/14 10:44:59;;;;;;;10.32;7.22;;;13.80;49.40;;;;;;5017166;28;20137;-69
2024/03/14 10:47:26;;;;;;;11.93;8.52;;;14.00;66.30;;;;;;5026352;28;20260;-70
2024/03/14 10:49:53;;;;;;;13.65;8.50;;;14.00;49.00;;;;;;5027296;28;20054;-67
2024/03/14 10:52:21;;;;;;;11.43;6.95;;;14.20;49.60;;;;;;5029222;28;20372;-68
2024/03/14 10:54:50;;;;;;;16.38;9.07;;;14.30;49.40;;;;;;5021891;28;20450;-67
2024/03/14 10:57:18;;;;;;;13.90;8.93;;;14.40;49.20;;;;;;5029470;28;20038;-67
2024/03/14 10:59:44;;;;;;;14.75;9.73;;;14.40;48.90;;;;;;5025568;28;20337;-69
2024/03/14 11:02:14;;;;;;;13.05;8.05;;;14.30;49.00;;;;;;5029962;28;20037;-67
2024/03/14 11:04:44;;;;;;;12.88;9.57;;;14.40;48.90;;;;;;5025936;28;20156;-70
2024/03/14 11:07:12;;;;;;;13.32;8.07;;;14.40;48.80;;;;;;5028048;28;20038;-70
2024/03/14 11:09:53;;;;;;;14.95;8.38;;;14.50;48.40;;;;;;5021839;28;20390;-66
2024/03/14 11:12:24;;;;;;;13.18;8.40;;;14.50;48.30;;;;;;5021614;28;20336;-66
2024/03/14 11:14:59;;;;;;;14.75;9.27;;;14.50;48.50;;;;;;5025661;28;20037;-69
2024/03/14 11:17:28;;;;;;;13.70;8.93;;;14.50;48.50;;;;;;5023918;28;20022;-67
2024/03/14 11:20:01;;;;;;;12.25;8.13;;;14.50;47.90;;;;;;5025413;28;20112;-68
2024/03/14 11:22:27;;;;;;;13.02;8.10;;;14.70;47.80;;;;;;5029644;28;20140;-72
2024/03/14 11:24:55;;;;;;;10.48;7.20;;;14.80;48.30;;;;;;5022127;28;20110;-66
2024/03/14 11:27:22;;;;;;;12.50;6.95;;;14.90;46.80;;;;;;5047678;28;20041;-66
2024/03/14 11:29:48;;;;;;;9.13;6.93;;;15.00;46.80;;;;;;5029516;28;20045;-67
2024/03/14 11:32:23;;;;;;;11.05;7.65;;;15.00;46.60;;;;;;5031381;28;20060;-66
2024/03/14 11:34:49;;;;;;;11.32;7.15;;;15.00;46.30;;;;;;5029694;28;20056;-65
2024/03/14 11:37:16;;;;;;;12.05;7.40;;;15.20;46.30;;;;;;5022336;28;20091;-68
2024/03/14 11:39:46;;;;;;;9.93;7.85;;;15.30;46.50;;;;;;5028500;28;20229;-67
2024/03/14 11:42:16;;;;;;;10.60;6.80;;;15.40;46.10;;;;;;5020787;28;20222;-66
2024/03/14 11:44:46;;;;;;;11.57;7.72;;;15.60;45.90;;;;;;5022449;28;20030;-66
2024/03/14 11:47:14;;;;;;;9.93;7.20;;;15.70;45.40;;;;;;5025775;28;20038;-67
2024/03/14 11:49:55;;;;;;;11.07;7.30;;;15.70;45.90;;;;;;5020274;28;20318;-67
2024/03/14 11:52:21;;;;;;;10.27;6.75;;;15.80;45.60;;;;;;5028416;28;20036;-68
2024/03/14 11:54:55;;;;;;;13.05;7.80;;;15.90;45.20;;;;;;5037639;28;20112;-67
2024/03/14 11:57:23;;;;;;;12.50;7.28;;;16.00;44.80;;;;;;5030040;28;20105;-66
2024/03/14 11:59:49;;;;;;;9.18;6.47;;;16.00;45.00;;;;;;5030635;28;20032;-67
2024/03/14 12:02:15;;;;;;;8.43;6.53;;;16.20;44.80;;;;;;5020199;28;20038;-66
2024/03/14 12:04:40;;;;;;;9.65;7.30;;;16.50;45.40;;;;;;5022386;28;20076;-66
2024/03/14 12:07:07;;;;;;;11.52;6.97;;;16.80;45.30;;;;;;5029313;28;20217;-67
2024/03/14 12:09:35;;;;;;;10.88;7.60;;;17.00;44.50;;;;;;5019041;28;20048;-67
2024/03/14 12:12:01;;;;;;;10.43;6.80;;;17.00;43.80;;;;;;5023061;28;20053;-66
2024/03/14 12:14:28;;;;;;;10.82;6.53;;;17.00;43.70;;;;;;5028442;28;20037;-67
2024/03/14 12:16:55;;;;;;;10.32;7.53;;;16.90;43.50;;;;;;5022193;28;20034;-69
2024/03/14 12:19:21;;;;;;;10.57;7.07;;;17.10;62.00;;;;;;5020260;28;20292;-65
2024/03/14 12:21:49;;;;;;;9.30;6.45;;;17.00;42.60;;;;;;5030078;28;20052;-67
2024/03/14 12:24:16;;;;;;;9.70;7.13;;;17.00;43.20;;;;;;5020121;28;20325;-66
2024/03/14 12:26:43;;;;;;;10.18;7.55;;;17.20;43.80;;;;;;5019855;28;20053;-67
2024/03/14 12:29:09;;;;;;;10.93;7.50;;;17.50;43.00;;;;;;5020084;28;20149;-66
2024/03/14 12:31:35;;;;;;;9.02;6.57;;;17.60;43.10;;;;;;5025638;28;20321;-66
2024/03/14 12:34:03;;;;;;;10.48;7.57;;;17.60;42.80;;;;;;5022542;28;20075;-67
2024/03/14 12:36:31;;;;;;;13.45;7.78;;;17.70;42.10;;;;;;5027288;28;20039;-67
2024/03/14 12:38:58;;;;;;;8.68;6.10;;;17.30;42.40;;;;;;5034947;28;20082;-67
2024/03/14 12:41:24;;;;;;;10.43;7.60;;;16.90;43.00;;;;;;5019689;28;20056;-65